Peach Orchard, Georgia
Current Conditions -  °F | °C
As of 5:53 PM on Tuesday 27 Jan 2015 (Local Time) from KAGS Reporting Station
Scattered Clouds Scattered Clouds  
Wind Chill: 47°   Ceiling: Unl
Heat Index: 49°   Visibility: 10mi
Dew Point: 28°   Wind: 6mph
Humidity: 44%   Direction: 290°WNW
Pressure: 29.92"   Gusts: NA
Location:  33.3495°N, 81.976°W
Report Text: KAGS 272253Z 29005KT 10SM SCT065 09/M02 A2992 RMK AO2 SLP133 T00941022
Loading
Personal Weather Stations






























Interactive Weather Map New forecast layout! Learn more

10-Day Weather Forecast

Advertisements
Track Severe Weather on mobile